Time;durP1;ratioP1;P1;durP2;ratioP2;P2;SDS_P1;SDS_P2;PMS_P1;PMS_P2;Temp;Humidity;BMP_temperature;BMP_pressure;BME280_temperature;BME280_humidity;BME280_pressure;Samples;Min_cycle;Max_cycle;Signal;HPM_P1;HPM_P2
2023/07/31 00:01:21;;;;;;;1.67;1.58;;;16.10;99.90;;;;;;5050374;28;20358;-53
2023/07/31 00:03:47;;;;;;;5.82;1.92;;;16.20;99.90;;;;;;5064989;28;20033;-52
2023/07/31 00:06:13;;;;;;;8.18;2.55;;;16.20;99.90;;;;;;5054280;28;20100;-53
2023/07/31 00:08:38;;;;;;;9.63;2.75;;;16.30;99.90;;;;;;5054727;28;20039;-35
2023/07/31 00:11:04;;;;;;;8.25;3.25;;;16.30;99.90;;;;;;5053056;28;20037;-35
2023/07/31 00:13:29;;;;;;;11.65;3.67;;;16.40;99.90;;;;;;5063782;28;20465;-34
2023/07/31 00:15:55;;;;;;;20.70;4.13;;;16.40;99.90;;;;;;5071687;28;20031;-34
2023/07/31 00:18:21;;;;;;;24.50;5.50;;;16.60;99.90;;;;;;5048298;28;20539;-34
2023/07/31 00:20:46;;;;;;;20.50;5.32;;;16.60;99.90;;;;;;5062647;28;20051;-34
2023/07/31 00:23:12;;;;;;;23.08;4.95;;;16.70;99.90;;;;;;5052069;28;20486;-34
2023/07/31 00:25:38;;;;;;;31.63;5.03;;;16.80;99.90;;;;;;5052292;28;20072;-35
2023/07/31 00:28:03;;;;;;;18.63;4.70;;;16.80;99.90;;;;;;5048021;28;20545;-35
2023/07/31 00:30:29;;;;;;;29.48;5.57;;;16.90;99.90;;;;;;5057361;28;20056;-36
2023/07/31 00:32:55;;;;;;;28.08;4.78;;;16.90;99.90;;;;;;5045160;28;20051;-35
2023/07/31 00:35:21;;;;;;;34.42;5.85;;;16.90;99.90;;;;;;5070663;28;20025;-35
2023/07/31 00:37:46;;;;;;;27.98;6.72;;;17.00;99.90;;;;;;5065572;28;20384;-34
2023/07/31 00:40:13;;;;;;;27.48;5.88;;;17.00;99.90;;;;;;5054615;28;20029;-35
2023/07/31 00:42:39;;;;;;;15.37;4.53;;;17.00;99.90;;;;;;5057975;28;20564;-35
2023/07/31 00:45:05;;;;;;;28.42;6.22;;;17.00;99.90;;;;;;5054537;28;20058;-35
2023/07/31 00:47:31;;;;;;;24.98;5.22;;;17.00;99.90;;;;;;5056275;28;20033;-35
2023/07/31 00:49:57;;;;;;;29.30;4.68;;;17.00;99.90;;;;;;5064972;28;20032;-35
2023/07/31 00:52:23;;;;;;;22.73;5.00;;;17.00;99.90;;;;;;5074908;28;20044;-35
2023/07/31 00:54:50;;;;;;;28.15;6.00;;;17.00;99.90;;;;;;5073446;28;20314;-36
2023/07/31 00:57:15;;;;;;;34.47;5.90;;;17.00;99.90;;;;;;5036219;28;20481;-35
2023/07/31 00:59:41;;;;;;;14.93;4.65;;;17.00;99.90;;;;;;5051764;28;20036;-34
2023/07/31 01:02:07;;;;;;;29.88;5.38;;;17.00;99.90;;;;;;5055936;28;20520;-35
2023/07/31 01:04:32;;;;;;;27.02;5.53;;;17.00;99.90;;;;;;5057505;28;20047;-35
2023/07/31 01:07:24;;;;;;;22.58;5.20;;;17.00;99.90;;;;;;5057064;28;20017;-34
2023/07/31 01:10:08;;;;;;;17.42;4.45;;;17.00;99.90;;;;;;5055178;28;20038;-33
2023/07/31 01:12:34;;;;;;;24.80;4.40;;;17.00;99.90;;;;;;5063027;28;20377;-34
2023/07/31 01:15:11;;;;;;;14.07;2.67;;;17.00;99.90;;;;;;5071771;28;20021;-34
2023/07/31 01:17:40;;;;;;;25.55;4.20;;;17.00;99.90;;;;;;5055013;28;20068;-35
2023/07/31 01:20:12;;;;;;;14.82;3.97;;;17.00;99.90;;;;;;5061660;28;20380;-35
2023/07/31 01:22:46;;;;;;;21.48;5.47;;;17.00;99.90;;;;;;5075653;28;20052;-34
2023/07/31 01:25:44;;;;;;;24.67;4.28;;;17.00;99.90;;;;;;5070527;28;20041;-34
2023/07/31 01:28:24;;;;;;;18.48;4.35;;;16.90;99.90;;;;;;5064260;28;20089;-34
2023/07/31 01:30:50;;;;;;;14.05;3.78;;;16.90;99.90;;;;;;5059852;28;20091;-34
2023/07/31 01:33:16;;;;;;;18.27;5.07;;;16.90;99.90;;;;;;5055609;28;20071;-34
2023/07/31 01:35:46;;;;;;;18.42;4.57;;;16.90;99.90;;;;;;5056245;28;20025;-35
2023/07/31 01:38:11;;;;;;;21.27;4.10;;;16.90;99.90;;;;;;5065161;28;20025;-33
2023/07/31 01:40:37;;;;;;;27.80;4.88;;;16.90;99.90;;;;;;5074462;28;20106;-34
2023/07/31 01:43:03;;;;;;;15.48;4.22;;;16.90;99.90;;;;;;5074502;28;20058;-34
2023/07/31 01:45:28;;;;;;;21.48;5.78;;;16.90;99.90;;;;;;5067101;28;20029;-35
2023/07/31 01:47:54;;;;;;;17.17;4.13;;;17.00;99.90;;;;;;5061751;28;20056;-34
2023/07/31 01:50:20;;;;;;;23.05;4.93;;;16.90;99.90;;;;;;5058753;28;20534;-34
2023/07/31 01:52:45;;;;;;;21.27;4.22;;;16.90;99.90;;;;;;5054957;28;20045;-33
2023/07/31 01:55:11;;;;;;;25.10;4.15;;;16.90;99.90;;;;;;5053275;28;20025;-35
2023/07/31 01:57:37;;;;;;;9.65;3.35;;;16.90;99.90;;;;;;5053567;28;20021;-34
2023/07/31 02:00:03;;;;;;;21.40;4.32;;;16.90;99.90;;;;;;5054825;28;20029;-36
2023/07/31 02:02:29;;;;;;;18.67;3.95;;;16.80;99.90;;;;;;5055269;28;20029;-34
2023/07/31 02:04:54;;;;;;;17.90;3.65;;;16.70;99.90;;;;;;5060789;28;20033;-34
2023/07/31 02:07:20;;;;;;;19.02;3.67;;;16.70;99.90;;;;;;5064935;28;20033;-34
2023/07/31 02:09:47;;;;;;;11.93;3.47;;;16.70;99.90;;;;;;5075005;28;20025;-35
2023/07/31 02:12:14;;;;;;;14.65;3.55;;;16.70;99.90;;;;;;5052029;28;20017;-35
2023/07/31 02:14:40;;;;;;;11.35;3.33;;;16.70;99.90;;;;;;5055134;28;20021;-34
2023/07/31 02:17:06;;;;;;;16.58;3.40;;;16.70;99.90;;;;;;5054947;28;20654;-35
2023/07/31 02:19:32;;;;;;;18.33;3.88;;;16.70;99.90;;;;;;5056622;28;20024;-34
2023/07/31 02:21:57;;;;;;;17.90;4.25;;;16.80;99.90;;;;;;5074603;28;20115;-35
2023/07/31 02:24:25;;;;;;;24.05;4.72;;;16.80;99.90;;;;;;5058417;28;20016;-34
2023/07/31 02:26:50;;;;;;;19.27;4.53;;;16.80;99.90;;;;;;5074826;28;20505;-35
2023/07/31 02:29:16;;;;;;;14.30;4.97;;;16.80;99.90;;;;;;5054886;28;20146;-34
2023/07/31 02:31:41;;;;;;;15.68;3.92;;;16.80;99.90;;;;;;5054325;28;20036;-34
2023/07/31 02:34:07;;;;;;;17.42;3.88;;;16.80;99.90;;;;;;5052504;28;20071;-37
2023/07/31 02:36:33;;;;;;;21.58;4.72;;;16.80;99.90;;;;;;5074037;28;20451;-34
2023/07/31 02:38:58;;;;;;;19.85;3.92;;;16.80;99.90;;;;;;5072587;28;20066;-34
2023/07/31 02:41:24;;;;;;;18.58;3.92;;;16.90;99.90;;;;;;5065316;28;20028;-34
2023/07/31 02:43:49;;;;;;;25.75;4.45;;;16.90;99.90;;;;;;5061352;28;20116;-34
2023/07/31 02:46:15;;;;;;;24.98;4.22;;;16.90;99.90;;;;;;5054123;28;20039;-33
2023/07/31 02:48:41;;;;;;;19.50;4.18;;;16.90;99.90;;;;;;5055889;28;20493;-33
2023/07/31 02:51:06;;;;;;;30.77;6.35;;;16.90;99.90;;;;;;5073830;28;20048;-33
2023/07/31 02:53:32;;;;;;;34.88;5.45;;;17.00;99.90;;;;;;5060767;28;20059;-33
2023/07/31 02:55:57;;;;;;;24.63;5.07;;;17.00;99.90;;;;;;5053999;28;20024;-33
2023/07/31 02:58:23;;;;;;;31.45;4.78;;;17.00;99.90;;;;;;5055502;28;20024;-33
2023/07/31 03:00:49;;;;;;;19.23;5.53;;;17.00;99.90;;;;;;5073809;28;20501;-33
2023/07/31 03:03:14;;;;;;;19.85;4.90;;;17.00;99.90;;;;;;5064444;28;20035;-34
2023/07/31 03:05:40;;;;;;;34.78;4.32;;;17.00;99.90;;;;;;5063255;28;20096;-33
2023/07/31 03:08:06;;;;;;;24.92;5.60;;;17.00;99.90;;;;;;5053688;28;20518;-32
2023/07/31 03:10:31;;;;;;;32.72;4.85;;;17.00;99.90;;;;;;5049739;28;20401;-32
2023/07/31 03:12:57;;;;;;;23.20;5.55;;;17.10;99.90;;;;;;5052210;28;20036;-33
2023/07/31 03:15:23;;;;;;;21.65;4.72;;;17.10;99.90;;;;;;5051884;28;20437;-33
2023/07/31 03:17:48;;;;;;;20.77;5.30;;;17.00;99.90;;;;;;5053820;28;20028;-32
2023/07/31 03:20:14;;;;;;;28.98;4.55;;;17.00;99.90;;;;;;5063693;28;20082;-32
2023/07/31 03:22:40;;;;;;;18.73;4.57;;;17.00;99.90;;;;;;5055761;28;20480;-32
2023/07/31 03:25:06;;;;;;;20.88;5.10;;;17.00;99.90;;;;;;5051259;28;20115;-33
2023/07/31 03:27:31;;;;;;;22.85;4.78;;;17.00;99.90;;;;;;5053312;28;20032;-32
2023/07/31 03:29:57;;;;;;;13.35;4.00;;;17.00;99.90;;;;;;5053116;28;20389;-32
2023/07/31 03:32:23;;;;;;;15.68;4.68;;;17.00;99.90;;;;;;5063673;28;20024;-32
2023/07/31 03:34:49;;;;;;;20.08;4.72;;;17.00;99.90;;;;;;5061340;28;20021;-32
2023/07/31 03:37:15;;;;;;;19.20;4.45;;;17.00;99.90;;;;;;5053513;28;20028;-46
2023/07/31 03:39:41;;;;;;;23.65;5.25;;;17.00;99.90;;;;;;5053152;28;20017;-44
2023/07/31 03:42:06;;;;;;;19.10;4.28;;;17.00;99.90;;;;;;5062793;28;20029;-49
2023/07/31 03:44:32;;;;;;;19.92;6.13;;;17.00;99.90;;;;;;5067840;28;20143;-50
2023/07/31 03:46:58;;;;;;;17.48;4.30;;;17.00;99.90;;;;;;5059291;28;20050;-46
2023/07/31 03:49:23;;;;;;;17.65;5.05;;;17.00;99.90;;;;;;5068007;28;20024;-50
2023/07/31 03:51:50;;;;;;;22.58;5.05;;;17.00;99.90;;;;;;5073125;28;20119;-49
2023/07/31 03:54:15;;;;;;;13.90;4.68;;;17.00;99.90;;;;;;5072956;28;20420;-46
2023/07/31 03:56:41;;;;;;;10.05;4.15;;;16.90;99.90;;;;;;5069401;28;20024;-46
2023/07/31 03:59:06;;;;;;;21.52;5.05;;;17.00;99.90;;;;;;5060349;28;20032;-42
2023/07/31 04:01:32;;;;;;;22.00;5.85;;;16.90;99.90;;;;;;5049686;28;20485;-48
2023/07/31 04:03:58;;;;;;;10.00;4.55;;;16.90;99.90;;;;;;5056005;28;20039;-44
2023/07/31 04:06:23;;;;;;;22.10;4.85;;;16.90;99.90;;;;;;5052210;28;20033;-47
2023/07/31 04:08:49;;;;;;;14.23;4.22;;;16.90;99.90;;;;;;5049639;28;20527;-43
2023/07/31 04:11:15;;;;;;;31.30;5.22;;;16.90;99.90;;;;;;5047016;28;20021;-45
2023/07/31 04:13:40;;;;;;;21.80;4.47;;;16.90;99.90;;;;;;5049190;28;20016;-45
2023/07/31 04:16:06;;;;;;;17.73;4.93;;;16.90;99.90;;;;;;5048800;28;20099;-50
2023/07/31 04:18:32;;;;;;;18.48;5.07;;;16.90;99.90;;;;;;5050336;28;20096;-45
2023/07/31 04:20:58;;;;;;;28.45;5.15;;;16.90;99.90;;;;;;5060100;28;20025;-49
2023/07/31 04:23:25;;;;;;;16.42;4.90;;;16.90;99.90;;;;;;5048368;28;20407;-45
2023/07/31 04:25:51;;;;;;;16.25;5.22;;;16.80;99.90;;;;;;5048463;28;20028;-43
2023/07/31 04:28:16;;;;;;;15.85;3.92;;;16.80;99.90;;;;;;5048385;28;20033;-45
2023/07/31 04:30:42;;;;;;;17.90;4.75;;;16.80;99.90;;;;;;5050396;28;20028;-49
2023/07/31 04:33:08;;;;;;;17.65;3.90;;;16.70;99.90;;;;;;5035434;28;20029;-43
2023/07/31 04:35:33;;;;;;;15.95;4.25;;;16.70;99.90;;;;;;5059427;28;20458;-46
2023/07/31 04:37:59;;;;;;;18.13;4.78;;;16.70;99.90;;;;;;5049365;28;20030;-42
2023/07/31 04:40:25;;;;;;;10.23;4.68;;;16.70;99.90;;;;;;5049046;28;20450;-47
2023/07/31 04:42:51;;;;;;;15.68;5.18;;;16.70;99.90;;;;;;5045123;28;20112;-43
2023/07/31 04:45:17;;;;;;;17.63;4.63;;;16.70;99.90;;;;;;5048652;28;20515;-48
2023/07/31 04:47:42;;;;;;;12.15;4.43;;;16.70;99.90;;;;;;5050331;28;20569;-41
2023/07/31 04:50:08;;;;;;;14.10;4.95;;;16.70;99.90;;;;;;5046387;28;20108;-45
2023/07/31 04:52:34;;;;;;;11.27;3.65;;;16.60;99.90;;;;;;5052252;28;20045;-46
2023/07/31 04:55:00;;;;;;;14.35;4.20;;;16.60;99.90;;;;;;5052307;28;20033;-47
2023/07/31 04:57:25;;;;;;;16.33;4.03;;;16.60;99.90;;;;;;5052188;28;20025;-45
2023/07/31 04:59:51;;;;;;;11.70;3.70;;;16.60;99.90;;;;;;5053169;28;20033;-52
2023/07/31 05:02:17;;;;;;;17.98;3.55;;;16.60;99.90;;;;;;5052267;28;20060;-49
2023/07/31 05:04:42;;;;;;;11.85;3.58;;;16.60;99.90;;;;;;5054409;28;20442;-52
2023/07/31 05:07:08;;;;;;;14.25;4.32;;;16.60;99.90;;;;;;5052134;28;20037;-47
2023/07/31 05:09:33;;;;;;;12.07;3.50;;;16.60;99.90;;;;;;5050036;28;20032;-49
2023/07/31 05:11:59;;;;;;;13.65;3.63;;;16.60;99.90;;;;;;5071016;28;20025;-48
2023/07/31 05:14:26;;;;;;;12.52;2.75;;;16.60;99.90;;;;;;5057284;28;20079;-47
2023/07/31 05:16:52;;;;;;;7.68;3.20;;;16.60;99.90;;;;;;5050690;28;20474;-50
2023/07/31 05:19:18;;;;;;;8.48;3.92;;;16.50;99.90;;;;;;5052885;28;20028;-53
2023/07/31 05:21:43;;;;;;;6.25;2.83;;;16.50;99.90;;;;;;5056065;28;20025;-53
2023/07/31 05:24:10;;;;;;;14.27;3.22;;;16.50;99.90;;;;;;5054402;28;20031;-52
2023/07/31 05:26:36;;;;;;;4.82;2.90;;;16.50;99.90;;;;;;5068713;28;20033;-50
2023/07/31 05:29:01;;;;;;;9.73;2.63;;;16.50;99.90;;;;;;5069627;28;20108;-47
2023/07/31 05:31:27;;;;;;;10.65;2.40;;;16.50;99.90;;;;;;5054007;28;20490;-51
2023/07/31 05:33:53;;;;;;;9.43;2.60;;;16.50;99.90;;;;;;5053017;28;20017;-50
2023/07/31 05:36:18;;;;;;;12.70;2.70;;;16.50;99.90;;;;;;5063813;28;20101;-48
2023/07/31 05:38:44;;;;;;;9.13;2.90;;;16.40;99.90;;;;;;5053624;28;20025;-47
2023/07/31 05:41:14;;;;;;;9.27;2.20;;;16.40;99.90;;;;;;5043800;28;20032;-48
2023/07/31 05:43:40;;;;;;;6.70;2.83;;;16.40;99.90;;;;;;5055650;28;20021;-46
2023/07/31 05:46:06;;;;;;;10.20;2.95;;;16.40;99.90;;;;;;5056220;28;20029;-49
2023/07/31 05:48:34;;;;;;;6.88;2.90;;;16.40;99.90;;;;;;5059109;28;20104;-45
2023/07/31 05:50:59;;;;;;;11.02;3.47;;;16.40;99.90;;;;;;5053797;28;20392;-51
2023/07/31 05:53:25;;;;;;;12.45;2.95;;;16.40;99.90;;;;;;5054180;28;20108;-47
2023/07/31 05:55:51;;;;;;;10.40;3.72;;;16.40;99.90;;;;;;5050915;28;20025;-47
2023/07/31 05:58:16;;;;;;;9.98;2.35;;;16.40;99.90;;;;;;5051050;28;20506;-49
2023/07/31 06:00:42;;;;;;;11.57;2.78;;;16.40;99.90;;;;;;5053493;28;20013;-44
2023/07/31 06:03:08;;;;;;;10.60;3.13;;;16.40;99.90;;;;;;5048342;28;20120;-51
2023/07/31 06:05:33;;;;;;;6.68;2.45;;;16.40;99.90;;;;;;5053659;28;20059;-51
2023/07/31 06:07:59;;;;;;;5.88;2.25;;;16.40;99.90;;;;;;5073666;28;20024;-48
2023/07/31 06:10:25;;;;;;;2.83;2.10;;;16.50;99.90;;;;;;5043265;28;20152;-47
2023/07/31 06:12:51;;;;;;;6.30;2.10;;;16.40;99.90;;;;;;5042195;28;20101;-49
2023/07/31 06:15:18;;;;;;;7.47;2.60;;;16.50;99.90;;;;;;5048733;28;20150;-46
2023/07/31 06:17:44;;;;;;;;;;;16.50;99.90;;;;;;5053455;28;20025;-46
2023/07/31 06:20:10;;;;;;;12.77;2.47;;;16.50;99.90;;;;;;5044925;28;19955;-46
2023/07/31 06:22:36;;;;;;;3.97;1.80;;;16.50;99.90;;;;;;5050045;28;20029;-51
2023/07/31 06:25:01;;;;;;;6.13;2.00;;;16.60;99.90;;;;;;5053146;28;20067;-49
2023/07/31 06:27:27;;;;;;;9.35;2.90;;;16.60;99.90;;;;;;5053899;28;20064;-46
2023/07/31 06:29:52;;;;;;;2.85;1.70;;;16.60;99.90;;;;;;5053629;28;20029;-48
2023/07/31 06:32:18;;;;;;;8.60;2.13;;;16.60;99.90;;;;;;5051842;28;20029;-50
2023/07/31 06:34:44;;;;;;;3.70;1.80;;;16.60;99.90;;;;;;5052267;28;20033;-49
2023/07/31 06:37:09;;;;;;;3.60;2.03;;;16.70;99.90;;;;;;5052524;28;20123;-49
2023/07/31 06:39:35;;;;;;;3.13;2.15;;;16.70;99.90;;;;;;5044159;28;20028;-47
2023/07/31 06:42:00;;;;;;;7.15;2.70;;;16.70;99.90;;;;;;5043293;28;20025;-48
2023/07/31 06:44:26;;;;;;;6.95;2.28;;;16.70;99.90;;;;;;5049203;28;20484;-50
2023/07/31 06:46:52;;;;;;;5.47;2.10;;;16.70;99.90;;;;;;5046379;28;20554;-48
2023/07/31 06:49:17;;;;;;;8.05;2.78;;;16.80;99.90;;;;;;5043823;28;20055;-46
2023/07/31 06:51:44;;;;;;;5.65;2.22;;;16.80;99.90;;;;;;5053659;28;20048;-51
2023/07/31 06:54:09;;;;;;;3.78;2.47;;;16.80;99.90;;;;;;5054051;28;20032;-45
2023/07/31 06:56:35;;;;;;;3.80;2.28;;;16.90;99.90;;;;;;5052603;28;20385;-48
2023/07/31 06:59:01;;;;;;;3.53;2.08;;;16.90;99.90;;;;;;5053960;28;20032;-48
2023/07/31 07:01:28;;;;;;;7.53;2.10;;;17.00;99.90;;;;;;5054099;28;20508;-49
2023/07/31 07:03:54;;;;;;;5.53;2.28;;;17.00;99.90;;;;;;5051596;28;20032;-48
2023/07/31 07:06:20;;;;;;;6.90;3.08;;;17.00;99.90;;;;;;5053803;28;20029;-45
2023/07/31 07:08:46;;;;;;;4.32;1.67;;;17.10;99.90;;;;;;5054091;28;20028;-45
2023/07/31 07:11:11;;;;;;;5.50;2.00;;;17.10;99.90;;;;;;5050921;28;20025;-50
2023/07/31 07:13:37;;;;;;;8.13;2.70;;;17.00;99.90;;;;;;5053347;28;20493;-52
2023/07/31 07:16:03;;;;;;;3.33;1.80;;;17.10;99.90;;;;;;5053706;28;20049;-53
2023/07/31 07:18:28;;;;;;;3.85;1.55;;;17.10;99.90;;;;;;5052072;28;20036;-52
2023/07/31 07:20:54;;;;;;;2.47;1.88;;;17.10;99.90;;;;;;5053541;28;20516;-50
2023/07/31 07:23:21;;;;;;;10.48;2.35;;;17.10;99.90;;;;;;5053463;28;20063;-52
2023/07/31 07:25:47;;;;;;;4.47;1.77;;;17.10;99.90;;;;;;5053386;28;20376;-48
2023/07/31 07:28:13;;;;;;;6.75;1.83;;;17.10;99.90;;;;;;5050789;28;20037;-49
2023/07/31 07:30:39;;;;;;;2.42;1.73;;;17.10;99.90;;;;;;5052135;28;20028;-53
2023/07/31 07:33:05;;;;;;;5.95;2.15;;;17.20;99.90;;;;;;5053347;28;20025;-51
2023/07/31 07:35:34;;;;;;;4.97;1.67;;;17.20;99.90;;;;;;5053311;28;20494;-48
2023/07/31 07:38:00;;;;;;;5.18;1.80;;;17.20;99.90;;;;;;5052023;28;20025;-52
2023/07/31 07:40:26;;;;;;;4.70;2.15;;;17.20;99.90;;;;;;5051896;28;20040;-51
2023/07/31 07:42:51;;;;;;;2.05;1.33;;;17.30;99.90;;;;;;5053074;28;20374;-51
2023/07/31 07:45:17;;;;;;;5.60;1.63;;;17.30;99.90;;;;;;5053090;28;20389;-50
2023/07/31 07:47:43;;;;;;;7.03;1.23;;;17.30;99.90;;;;;;5050470;28;20036;-48
2023/07/31 07:50:09;;;;;;;5.13;1.60;;;17.30;99.90;;;;;;5052990;28;20039;-51
2023/07/31 07:52:35;;;;;;;5.45;1.63;;;17.30;99.90;;;;;;5052748;28;20033;-49
2023/07/31 07:55:00;;;;;;;2.10;1.25;;;17.40;99.90;;;;;;5051855;28;20119;-46
2023/07/31 07:57:26;;;;;;;2.92;1.05;;;17.40;99.90;;;;;;5051188;28;20036;-49
2023/07/31 07:59:52;;;;;;;1.58;1.48;;;17.40;99.90;;;;;;5052099;28;20036;-50
2023/07/31 08:02:18;;;;;;;2.15;1.40;;;17.40;99.90;;;;;;5051667;28;20397;-48
2023/07/31 08:04:44;;;;;;;2.88;1.13;;;17.40;99.90;;;;;;5053152;28;20362;-45
2023/07/31 08:07:12;;;;;;;2.42;1.35;;;17.40;99.90;;;;;;5048638;28;20030;-47
2023/07/31 08:09:39;;;;;;;2.10;1.23;;;17.50;99.90;;;;;;5059963;28;20092;-46
2023/07/31 08:12:06;;;;;;;1.25;1.20;;;17.50;99.90;;;;;;5050902;28;20063;-46
2023/07/31 08:14:31;;;;;;;1.05;0.95;;;17.50;99.90;;;;;;5052053;28;20107;-48
2023/07/31 08:16:57;;;;;;;1.90;0.90;;;17.50;99.90;;;;;;5052967;28;20045;-47
2023/07/31 08:19:23;;;;;;;1.10;0.80;;;17.60;99.90;;;;;;5052690;28;20482;-50
2023/07/31 08:21:48;;;;;;;1.33;1.05;;;17.60;99.90;;;;;;5050610;28;20498;-48
2023/07/31 08:24:14;;;;;;;4.63;1.10;;;17.70;99.90;;;;;;5050529;28;20389;-51
2023/07/31 08:26:40;;;;;;;1.80;1.10;;;17.70;99.90;;;;;;5047340;28;20087;-49
2023/07/31 08:29:05;;;;;;;1.20;0.95;;;17.80;99.90;;;;;;5043567;28;20047;-45
2023/07/31 08:31:31;;;;;;;2.38;0.90;;;17.80;99.90;;;;;;5049823;28;20025;-48
2023/07/31 08:33:57;;;;;;;1.27;0.98;;;17.90;99.90;;;;;;5045146;28;20025;-44
2023/07/31 08:36:22;;;;;;;1.45;0.93;;;18.00;99.90;;;;;;5043408;28;20032;-47
2023/07/31 08:38:49;;;;;;;1.40;0.88;;;18.00;99.90;;;;;;5047852;28;20029;-49
2023/07/31 08:41:17;;;;;;;0.77;0.70;;;18.10;99.90;;;;;;5046621;28;20021;-48
2023/07/31 08:43:44;;;;;;;;;;;18.00;99.90;;;;;;5050550;28;20036;-44
2023/07/31 08:46:10;;;;;;;1.00;0.85;;;18.00;99.90;;;;;;5050837;28;19976;-52
2023/07/31 08:48:38;;;;;;;2.55;0.88;;;18.00;99.90;;;;;;5049677;28;20101;-51
2023/07/31 08:51:04;;;;;;;2.25;1.00;;;18.00;99.90;;;;;;5040679;28;20033;-52
2023/07/31 08:53:30;;;;;;;1.35;0.98;;;18.10;99.90;;;;;;5050566;28;20104;-49
2023/07/31 08:55:58;;;;;;;1.55;1.08;;;18.00;99.90;;;;;;5054540;28;20029;-47
2023/07/31 08:58:25;;;;;;;1.17;0.80;;;18.00;99.90;;;;;;5056324;28;20024;-46
2023/07/31 09:00:52;;;;;;;1.03;0.87;;;18.00;99.90;;;;;;5055957;28;20071;-51
2023/07/31 09:03:19;;;;;;;1.85;1.23;;;18.00;99.90;;;;;;5056140;28;20132;-51
2023/07/31 09:05:46;;;;;;;1.15;1.08;;;18.10;99.90;;;;;;5054037;28;20025;-35
2023/07/31 09:08:14;;;;;;;1.00;0.90;;;18.00;99.90;;;;;;5056112;28;20035;-34
2023/07/31 09:10:45;;;;;;;1.48;1.27;;;18.10;99.90;;;;;;5052535;28;20032;-35
2023/07/31 09:13:12;;;;;;;1.55;1.35;;;18.10;99.90;;;;;;5054743;28;20029;-34
2023/07/31 09:15:38;;;;;;;1.90;1.10;;;18.10;99.90;;;;;;5056173;28;20060;-34
2023/07/31 09:18:06;;;;;;;1.42;1.33;;;18.20;99.90;;;;;;5054311;28;20021;-34
2023/07/31 09:20:32;;;;;;;1.27;1.13;;;18.20;99.90;;;;;;5055776;28;20393;-33
2023/07/31 09:23:06;;;;;;;1.85;0.70;;;18.20;99.90;;;;;;5055027;28;20032;-33
2023/07/31 09:25:32;;;;;;;1.20;0.93;;;18.30;99.90;;;;;;5055951;28;20032;-34
2023/07/31 09:28:00;;;;;;;0.90;0.90;;;18.40;99.90;;;;;;5054702;28;20079;-35
2023/07/31 09:30:26;;;;;;;2.72;1.40;;;18.40;99.90;;;;;;5055562;28;20064;-34
2023/07/31 09:33:08;;;;;;;2.58;1.20;;;18.50;99.90;;;;;;5055598;28;20482;-34
2023/07/31 09:35:35;;;;;;;4.07;1.35;;;18.50;99.90;;;;;;5054643;28;20363;-34
2023/07/31 09:38:05;;;;;;;1.70;1.00;;;18.50;99.90;;;;;;5055501;28;20017;-34
2023/07/31 09:40:38;;;;;;;1.02;0.90;;;18.50;99.90;;;;;;5056067;28;20025;-34
2023/07/31 09:43:11;;;;;;;2.90;1.48;;;18.50;99.90;;;;;;5055370;28;20029;-33
2023/07/31 09:45:46;;;;;;;1.20;1.10;;;18.50;99.90;;;;;;5053423;28;20037;-34
2023/07/31 09:48:17;;;;;;;2.53;1.13;;;18.60;99.90;;;;;;5055385;28;20041;-36
2023/07/31 09:50:49;;;;;;;1.25;1.10;;;18.60;99.90;;;;;;5053993;28;20098;-35
2023/07/31 09:53:16;;;;;;;1.40;1.30;;;18.60;99.90;;;;;;5055037;28;20099;-34
2023/07/31 09:55:43;;;;;;;0.95;0.95;;;18.60;99.90;;;;;;5054488;28;20473;-34
2023/07/31 09:58:10;;;;;;;2.05;1.60;;;18.60;99.90;;;;;;5055172;28;20500;-33
2023/07/31 10:00:36;;;;;;;1.35;1.23;;;18.60;99.90;;;;;;5055109;28;20075;-33
2023/07/31 10:03:08;;;;;;;2.40;1.45;;;18.50;99.90;;;;;;5055275;28;20044;-34
2023/07/31 10:05:48;;;;;;;2.15;1.63;;;18.60;99.90;;;;;;5052037;28;20037;-34
2023/07/31 10:08:15;;;;;;;1.60;1.50;;;18.70;99.90;;;;;;5054981;28;20095;-35
2023/07/31 10:10:43;;;;;;;1.40;1.30;;;18.60;99.90;;;;;;5054813;28;20028;-34
2023/07/31 10:13:09;;;;;;;1.70;1.60;;;18.60;99.90;;;;;;5054842;28;20306;-33
2023/07/31 10:15:35;;;;;;;4.45;1.65;;;18.60;99.90;;;;;;5053716;28;20401;-34
2023/07/31 10:18:02;;;;;;;4.13;1.17;;;18.60;99.90;;;;;;5053418;28;20131;-35
2023/07/31 10:20:28;;;;;;;3.40;1.52;;;18.60;99.90;;;;;;5051951;28;20470;-36
2023/07/31 10:22:58;;;;;;;2.58;1.67;;;18.70;99.90;;;;;;5053228;28;20159;-34
2023/07/31 10:25:26;;;;;;;2.83;2.03;;;18.70;99.90;;;;;;5054794;28;20378;-34
2023/07/31 10:27:52;;;;;;;;;;;18.70;99.90;;;;;;5053473;28;20029;-34
2023/07/31 10:30:22;;;;;;;2.92;1.85;;;18.70;99.90;;;;;;5054684;28;20292;-35
2023/07/31 10:32:49;;;;;;;7.93;2.60;;;18.70;99.90;;;;;;5053283;28;20478;-35
2023/07/31 10:35:17;;;;;;;4.35;2.03;;;18.70;99.90;;;;;;5034439;28;20025;-34
2023/07/31 10:37:43;;;;;;;4.75;2.63;;;18.70;99.90;;;;;;5034197;28;20478;-34
2023/07/31 10:40:16;;;;;;;4.90;2.80;;;18.70;99.90;;;;;;5052554;28;20029;-34
2023/07/31 10:42:49;;;;;;;3.75;2.53;;;18.70;99.90;;;;;;5054353;28;20028;-34
2023/07/31 10:45:31;;;;;;;4.30;2.10;;;18.70;99.90;;;;;;5054296;28;20032;-34
2023/07/31 10:48:01;;;;;;;20.40;2.38;;;18.70;99.90;;;;;;5052982;28;20098;-35
2023/07/31 10:50:28;;;;;;;2.38;2.17;;;18.70;99.90;;;;;;5032884;28;20025;-33
2023/07/31 10:53:00;;;;;;;2.45;2.25;;;18.70;99.90;;;;;;5033887;28;20046;-33
2023/07/31 10:55:42;;;;;;;4.40;2.00;;;18.70;99.90;;;;;;5034443;28;20033;-33
2023/07/31 10:58:12;;;;;;;2.90;2.30;;;18.70;99.90;;;;;;5033166;28;20482;-35
2023/07/31 11:00:42;;;;;;;3.63;2.10;;;18.70;99.90;;;;;;5045262;28;20096;-34
2023/07/31 11:03:21;;;;;;;4.10;1.85;;;18.70;99.90;;;;;;5034288;28;20444;-34
2023/07/31 11:05:55;;;;;;;2.35;1.83;;;18.80;99.90;;;;;;5048840;28;20032;-33
2023/07/31 11:08:29;;;;;;;2.08;1.52;;;18.80;99.90;;;;;;5053789;28;20112;-33
2023/07/31 11:11:05;;;;;;;1.20;1.10;;;18.80;99.90;;;;;;5053980;28;20504;-35
2023/07/31 11:13:49;;;;;;;4.45;1.20;;;18.70;99.90;;;;;;5053764;28;20083;-34
2023/07/31 11:16:15;;;;;;;1.40;1.30;;;18.70;99.90;;;;;;5051815;28;20071;-35
2023/07/31 11:18:42;;;;;;;3.20;1.60;;;18.70;99.90;;;;;;5033663;28;20528;-34
2023/07/31 11:21:20;;;;;;;2.30;1.85;;;18.80;99.90;;;;;;5033604;28;20055;-34
2023/07/31 11:23:50;;;;;;;2.83;2.20;;;18.80;99.90;;;;;;5049113;28;20144;-33
2023/07/31 11:26:16;;;;;;;2.85;1.73;;;18.80;99.90;;;;;;5053520;28;20079;-33
2023/07/31 11:28:44;;;;;;;2.45;1.73;;;18.80;99.90;;;;;;5053265;28;20067;-34
2023/07/31 11:31:10;;;;;;;4.00;2.10;;;18.70;99.90;;;;;;5053329;28;20079;-34
2023/07/31 11:33:36;;;;;;;4.07;1.90;;;18.70;99.90;;;;;;5053596;28;20048;-35
2023/07/31 11:36:02;;;;;;;7.78;2.10;;;18.70;99.90;;;;;;5053299;28;20083;-35
2023/07/31 11:38:33;;;;;;;5.28;2.05;;;18.60;99.90;;;;;;5053119;28;20029;-35
2023/07/31 11:41:03;;;;;;;3.40;1.70;;;18.50;99.90;;;;;;5053066;28;20025;-35
2023/07/31 11:43:30;;;;;;;6.05;2.42;;;18.50;99.90;;;;;;5053509;28;20507;-36
2023/07/31 11:45:57;;;;;;;3.92;2.13;;;18.50;99.90;;;;;;5053346;28;20064;-35
2023/07/31 11:48:27;;;;;;;2.47;2.28;;;18.50;99.90;;;;;;5053444;28;20028;-35
2023/07/31 11:50:56;;;;;;;7.07;3.20;;;18.50;99.90;;;;;;5053248;28;20021;-35
2023/07/31 11:53:52;;;;;;;5.07;3.20;;;18.60;99.90;;;;;;5052977;28;20049;-35
2023/07/31 11:56:19;;;;;;;6.80;3.13;;;18.50;99.90;;;;;;5052833;28;20456;-36
2023/07/31 11:58:52;;;;;;;6.15;3.42;;;18.60;99.90;;;;;;5053026;28;20047;-34
2023/07/31 12:01:21;;;;;;;3.53;2.88;;;18.60;99.90;;;;;;5053072;28;20037;-35
2023/07/31 12:03:47;;;;;;;5.35;3.08;;;18.60;99.90;;;;;;5052938;28;20036;-35
2023/07/31 12:06:13;;;;;;;5.72;3.30;;;18.60;99.90;;;;;;5052954;28;20037;-44
2023/07/31 12:08:38;;;;;;;4.00;2.50;;;18.60;99.90;;;;;;5052698;28;20029;-34
2023/07/31 12:11:06;;;;;;;2.72;2.50;;;18.50;99.90;;;;;;5052828;28;20040;-35
2023/07/31 12:13:33;;;;;;;2.15;1.98;;;18.50;99.90;;;;;;5052838;28;20029;-41
2023/07/31 12:16:02;;;;;;;2.85;2.22;;;18.50;99.90;;;;;;5053055;28;20484;-35
2023/07/31 12:18:34;;;;;;;7.30;2.92;;;18.50;99.90;;;;;;5052749;28;20021;-35
2023/07/31 12:21:02;;;;;;;2.90;2.47;;;18.60;99.90;;;;;;5053018;28;20061;-35
2023/07/31 12:23:32;;;;;;;2.92;2.13;;;18.60;99.90;;;;;;5052664;28;20474;-35
2023/07/31 12:26:07;;;;;;;3.38;2.85;;;18.60;99.90;;;;;;5052970;28;20029;-36
2023/07/31 12:28:41;;;;;;;4.82;2.40;;;18.60;99.90;;;;;;5055336;28;20074;-36
2023/07/31 12:31:14;;;;;;;3.25;2.20;;;18.60;99.90;;;;;;5056721;28;20547;-35
2023/07/31 12:33:41;;;;;;;3.58;2.53;;;18.60;99.90;;;;;;5056751;28;20099;-35
2023/07/31 12:36:13;;;;;;;6.82;2.55;;;18.60;99.90;;;;;;5056678;28;20094;-52
2023/07/31 12:38:39;;;;;;;3.08;2.75;;;18.60;99.90;;;;;;5056591;28;20095;-48
2023/07/31 12:41:06;;;;;;;2.60;2.40;;;18.60;99.90;;;;;;5056649;28;20025;-52
2023/07/31 12:43:33;;;;;;;2.88;2.17;;;18.70;99.90;;;;;;5056577;28;20060;-49